createdAt,value
2019-03-29T00:01:52.597Z,70.45
2019-03-29T00:06:47.959Z,70.79
2019-03-29T00:11:42.532Z,70.73
2019-03-29T00:16:39.885Z,71.15
2019-03-29T00:21:34.463Z,71.20
2019-03-29T00:26:29.094Z,71.68
2019-03-29T00:31:23.673Z,72.13
2019-03-29T00:36:18.277Z,72.54
2019-03-29T00:41:12.854Z,72.36
2019-03-29T00:46:07.447Z,72.77
2019-03-29T00:51:02.037Z,72.90
2019-03-29T00:55:56.647Z,72.63
2019-03-29T01:00:51.249Z,73.28
2019-03-29T01:05:46.871Z,73.59
2019-03-29T01:10:41.504Z,73.98
2019-03-29T01:15:36.556Z,74.08
2019-03-29T01:20:31.966Z,73.86
2019-03-29T01:25:26.562Z,74.08
2019-03-29T01:30:21.325Z,74.04
2019-03-29T01:35:16.331Z,74.19
2019-03-29T01:40:11.325Z,74.11
2019-03-29T01:45:09.443Z,74.31
2019-03-29T01:50:05.523Z,74.65
2019-03-29T01:55:00.481Z,74.59
2019-03-29T01:59:55.146Z,74.45
2019-03-29T02:04:49.764Z,74.85
2019-03-29T02:09:44.417Z,75.20
2019-03-29T02:14:39.011Z,75.34
2019-03-29T02:19:33.590Z,74.82
2019-03-29T02:24:28.966Z,74.84
2019-03-29T02:29:23.549Z,75.20
2019-03-29T02:34:18.247Z,75.00
2019-03-29T02:39:12.821Z,75.29
2019-03-29T02:44:07.591Z,75.68
2019-03-29T02:49:02.987Z,75.92
2019-03-29T02:53:57.591Z,76.34
2019-03-29T02:58:52.195Z,77.17
2019-03-29T03:03:46.785Z,77.66
2019-03-29T03:08:41.375Z,77.86
2019-03-29T03:13:36.315Z,78.13
2019-03-29T03:18:30.899Z,78.18
2019-03-29T03:23:25.505Z,77.88
2019-03-29T03:28:21.188Z,78.69
2019-03-29T03:33:15.830Z,79.03
2019-03-29T03:38:10.410Z,79.31
2019-03-29T03:43:05.253Z,79.55
2019-03-29T03:47:59.829Z,79.87
2019-03-29T03:52:54.502Z,80.36
2019-03-29T03:57:50.294Z,80.45
2019-03-29T04:02:44.978Z,80.40
2019-03-29T04:07:39.548Z,80.39
2019-03-29T04:12:34.144Z,80.87
2019-03-29T04:17:28.736Z,80.85
2019-03-29T04:22:23.348Z,80.83
2019-03-29T04:27:17.921Z,80.85
2019-03-29T04:32:12.718Z,81.28
2019-03-29T04:37:07.387Z,81.79
2019-03-29T04:42:01.995Z,81.68
2019-03-29T04:46:56.664Z,81.74
2019-03-29T04:51:51.252Z,82.31
2019-03-29T04:56:45.831Z,82.34
2019-03-29T05:01:40.438Z,83.05
2019-03-29T05:06:35.017Z,83.23
2019-03-29T05:11:29.602Z,83.31
2019-03-29T05:16:24.176Z,83.53
2019-03-29T05:21:18.794Z,83.47
2019-03-29T05:26:13.379Z,83.16
2019-03-29T05:31:07.971Z,81.72
2019-03-29T05:36:03.370Z,79.53
2019-03-29T05:40:58.041Z,76.98
2019-03-29T05:45:52.633Z,74.05
2019-03-29T05:50:47.271Z,71.66
2019-03-29T05:55:41.855Z,68.81
2019-03-29T06:00:36.473Z,66.29
2019-03-29T06:05:31.056Z,62.62
2019-03-29T06:10:25.746Z,59.85
2019-03-29T06:15:20.350Z,58.23
2019-03-29T06:20:15.250Z,55.70
2019-03-29T06:25:10.153Z,55.32
2019-03-29T06:30:12.598Z,55.62
2019-03-29T06:35:14.304Z,56.44
2019-03-29T06:40:14.825Z,56.73
2019-03-29T06:45:10.698Z,56.70
2019-03-29T06:50:10.343Z,57.77
2019-03-29T06:55:06.062Z,58.50
2019-03-29T07:00:00.682Z,58.91
2019-03-29T07:04:55.270Z,59.17
2019-03-29T07:09:49.889Z,59.47
2019-03-29T07:14:44.479Z,59.66
2019-03-29T07:19:39.256Z,59.76
2019-03-29T07:24:33.872Z,60.68
2019-03-29T07:29:29.044Z,60.58
2019-03-29T07:34:23.651Z,60.16
2019-03-29T07:39:18.417Z,59.87
2019-03-29T07:44:13.111Z,59.47
2019-03-29T07:49:09.395Z,59.26
2019-03-29T07:54:09.252Z,58.80
2019-03-29T07:59:04.215Z,57.78
2019-03-29T08:03:59.023Z,58.67
2019-03-29T08:08:53.632Z,58.77
2019-03-29T08:13:48.245Z,58.01
2019-03-29T08:18:42.894Z,57.71
2019-03-29T08:23:37.530Z,56.91
2019-03-29T08:28:32.399Z,56.70
2019-03-29T08:33:27.019Z,56.70
2019-03-29T08:38:23.547Z,56.16
2019-03-29T08:43:18.452Z,55.25
2019-03-29T08:48:13.432Z,55.20
2019-03-29T08:53:11.134Z,54.70
2019-03-29T08:58:06.080Z,54.65
2019-03-29T09:03:01.069Z,53.67
2019-03-29T09:07:56.625Z,53.90
2019-03-29T09:12:51.317Z,53.43
2019-03-29T09:17:46.149Z,52.43
2019-03-29T09:22:46.077Z,52.35
2019-03-29T09:27:40.893Z,51.79
2019-03-29T09:32:41.714Z,51.39
2019-03-29T09:37:36.447Z,51.25
2019-03-29T09:42:31.507Z,51.91
2019-03-29T09:47:26.407Z,50.98
2019-03-29T09:52:21.098Z,48.16
2019-03-29T09:57:16.415Z,42.89
2019-03-29T10:02:13.308Z,45.98
2019-03-29T10:07:07.993Z,43.32
2019-03-29T10:12:02.774Z,42.21
2019-03-29T10:16:57.384Z,41.82
2019-03-29T10:21:52.079Z,39.54
2019-03-29T10:26:47.129Z,39.78
2019-03-29T10:31:41.800Z,38.22
2019-03-29T10:36:37.443Z,37.23
2019-03-29T10:41:34.540Z,37.35
2019-03-29T10:46:31.560Z,36.11
2019-03-29T10:51:26.173Z,35.62
2019-03-29T10:56:33.859Z,36.19
2019-03-29T11:01:24.719Z,36.51
2019-03-29T11:06:18.699Z,39.94
2019-03-29T11:11:13.868Z,41.50
2019-03-29T11:16:08.656Z,43.23
2019-03-29T11:21:03.420Z,42.32
2019-03-29T11:25:58.114Z,42.90
2019-03-29T11:30:52.967Z,40.61
2019-03-29T11:35:47.972Z,40.27
2019-03-29T11:40:42.588Z,39.96
2019-03-29T11:45:38.186Z,39.19
2019-03-29T11:50:32.905Z,40.89
2019-03-29T11:55:27.733Z,43.67
2019-03-29T12:00:37.507Z,41.78
2019-03-29T12:05:32.306Z,39.89
2019-03-29T12:10:27.004Z,40.65
2019-03-29T12:15:21.889Z,41.09
2019-03-29T12:20:16.564Z,41.10
2019-03-29T12:25:11.472Z,41.41
2019-03-29T12:30:10.977Z,41.63
2019-03-29T12:35:10.032Z,40.76
2019-03-29T12:40:09.476Z,41.30
2019-03-29T12:45:05.483Z,41.15
2019-03-29T12:50:03.710Z,40.95
2019-03-29T12:54:58.653Z,40.38
2019-03-29T12:59:53.351Z,40.90
2019-03-29T13:04:48.000Z,39.78
2019-03-29T13:09:42.707Z,39.17
2019-03-29T13:14:38.138Z,38.21
2019-03-29T13:19:35.823Z,38.18
2019-03-29T13:24:30.505Z,37.66
2019-03-29T13:29:25.136Z,37.03
2019-03-29T13:34:19.721Z,36.48
2019-03-29T13:39:14.408Z,36.33
2019-03-29T13:44:22.975Z,36.18
2019-03-29T13:49:06.480Z,37.01
2019-03-29T13:54:01.844Z,37.02
2019-03-29T13:58:56.494Z,36.92
2019-03-29T14:03:51.067Z,36.63
2019-03-29T14:08:46.462Z,36.55
2019-03-29T14:13:41.439Z,35.69
2019-03-29T14:18:43.489Z,35.89
2019-03-29T14:23:38.537Z,35.23
2019-03-29T14:28:34.245Z,34.71
2019-03-29T14:33:29.226Z,34.51
2019-03-29T14:38:23.991Z,35.01
2019-03-29T14:43:18.587Z,34.94
2019-03-29T14:48:16.878Z,34.96
2019-03-29T14:53:13.239Z,34.71
2019-03-29T14:58:07.986Z,35.16
2019-03-29T15:03:02.660Z,34.95
2019-03-29T15:07:57.441Z,32.88
2019-03-29T15:12:52.179Z,33.94
2019-03-29T15:17:47.233Z,33.76
2019-03-29T15:22:42.329Z,33.57
2019-03-29T15:27:37.431Z,33.80
2019-03-29T15:32:32.199Z,34.69
2019-03-29T15:37:26.811Z,34.19
2019-03-29T15:42:21.479Z,34.11
2019-03-29T15:47:16.096Z,34.54
2019-03-29T15:52:10.960Z,34.16
2019-03-29T15:57:05.970Z,34.61
2019-03-29T16:02:00.626Z,34.81
2019-03-29T16:06:55.735Z,34.41
2019-03-29T16:11:50.379Z,36.21
2019-03-29T16:16:46.052Z,36.15
2019-03-29T16:21:40.975Z,36.46
2019-03-29T16:26:35.546Z,36.55
2019-03-29T16:31:30.188Z,36.19
2019-03-29T16:36:24.860Z,35.56
2019-03-29T16:41:19.449Z,34.16
2019-03-29T16:46:14.069Z,35.41
2019-03-29T16:51:08.740Z,35.76
2019-03-29T16:56:03.485Z,35.37
2019-03-29T17:00:58.079Z,34.82
2019-03-29T17:05:52.758Z,35.63
2019-03-29T17:10:47.350Z,35.30
2019-03-29T17:15:42.038Z,34.29
2019-03-29T17:20:36.628Z,34.62
2019-03-29T17:25:31.245Z,35.25
2019-03-29T17:30:42.155Z,35.48
2019-03-29T17:35:36.739Z,35.69
2019-03-29T17:40:31.359Z,36.38
2019-03-29T17:45:25.947Z,37.48
2019-03-29T17:50:20.553Z,38.18
2019-03-29T17:55:16.299Z,38.73
2019-03-29T18:00:13.228Z,38.98
2019-03-29T18:05:09.330Z,39.71
2019-03-29T18:10:07.902Z,39.28
2019-03-29T18:15:02.503Z,38.37
2019-03-29T18:19:57.119Z,38.50
2019-03-29T18:24:51.704Z,39.41
2019-03-29T18:29:46.301Z,40.57
2019-03-29T18:34:42.241Z,41.27
2019-03-29T18:39:38.757Z,43.18
2019-03-29T18:44:33.334Z,46.27
2019-03-29T18:49:27.934Z,46.48
2019-03-29T18:54:22.526Z,46.74
2019-03-29T18:59:17.218Z,45.93
2019-03-29T19:04:11.795Z,45.70
2019-03-29T19:09:08.050Z,45.20
2019-03-29T19:14:02.643Z,46.15
2019-03-29T19:19:09.448Z,46.49
2019-03-29T19:23:53.626Z,47.35
2019-03-29T19:28:48.240Z,47.70
2019-03-29T19:33:43.696Z,47.88
2019-03-29T19:38:38.317Z,48.08
2019-03-29T19:43:32.906Z,46.89
2019-03-29T19:48:27.499Z,46.37
2019-03-29T19:53:23.061Z,45.71
2019-03-29T19:58:17.842Z,45.06
2019-03-29T20:03:12.681Z,46.83
2019-03-29T20:08:07.467Z,46.97
2019-03-29T20:13:02.265Z,48.97
2019-03-29T20:17:56.941Z,48.81
2019-03-29T20:22:53.151Z,49.02
2019-03-29T20:27:47.741Z,49.12
2019-03-29T20:32:42.333Z,50.75
2019-03-29T20:37:36.930Z,52.47
2019-03-29T20:42:31.499Z,53.40
2019-03-29T20:47:26.099Z,53.92
2019-03-29T20:52:20.683Z,54.20
2019-03-29T20:57:15.347Z,53.61
2019-03-29T21:02:09.931Z,54.14
2019-03-29T21:07:04.547Z,54.72
2019-03-29T21:11:59.124Z,54.77
2019-03-29T21:16:53.716Z,53.74
2019-03-29T21:21:48.301Z,54.92
2019-03-29T21:26:42.944Z,54.14
2019-03-29T21:31:37.531Z,53.49
2019-03-29T21:36:33.106Z,54.15
2019-03-29T21:41:27.754Z,56.13
2019-03-29T21:46:22.378Z,56.17
2019-03-29T21:51:16.958Z,56.50
2019-03-29T21:56:11.558Z,56.56
2019-03-29T22:01:06.140Z,56.50
2019-03-29T22:06:00.723Z,57.40
2019-03-29T22:10:55.296Z,57.67
2019-03-29T22:15:49.910Z,58.07
2019-03-29T22:20:44.480Z,58.11
2019-03-29T22:25:39.086Z,58.34
2019-03-29T22:30:33.671Z,58.50
2019-03-29T22:35:28.256Z,59.27
2019-03-29T22:40:22.926Z,59.97
2019-03-29T22:45:17.521Z,60.42
2019-03-29T22:50:12.916Z,60.66
2019-03-29T22:55:08.725Z,61.45
2019-03-29T23:00:04.894Z,62.72
2019-03-29T23:04:59.507Z,64.16
2019-03-29T23:09:54.086Z,64.60
2019-03-29T23:14:48.695Z,63.61
2019-03-29T23:19:43.277Z,64.39
2019-03-29T23:24:37.881Z,64.87
2019-03-29T23:29:32.456Z,65.48
2019-03-29T23:34:27.625Z,66.24
2019-03-29T23:39:22.206Z,67.64
2019-03-29T23:44:16.857Z,68.00
2019-03-29T23:49:20.800Z,68.68
2019-03-29T23:54:07.769Z,68.87
2019-03-29T23:59:02.341Z,69.97
